sensor_id;sensor_type;location;lat;lon;timestamp;temperature;humidity
41080;DHT22;26826;50.718;7.114;2022-08-05T00:01:58;23.60;99.90
41080;DHT22;26826;50.718;7.114;2022-08-05T00:11:58;23.40;99.90
41080;DHT22;26826;50.718;7.114;2022-08-05T00:21:59;23.20;99.90
41080;DHT22;26826;50.718;7.114;2022-08-05T00:31:59;23.20;99.90
41080;DHT22;26826;50.718;7.114;2022-08-05T00:42:01;23.10;99.90
41080;DHT22;26826;50.718;7.114;2022-08-05T00:52:01;23.10;99.90
41080;DHT22;26826;50.718;7.114;2022-08-05T01:02:02;22.90;99.90
41080;DHT22;26826;50.718;7.114;2022-08-05T01:12:10;22.90;99.90
41080;DHT22;26826;50.718;7.114;2022-08-05T01:22:25;22.70;99.90
41080;DHT22;26826;50.718;7.114;2022-08-05T01:32:31;22.40;99.90
41080;DHT22;26826;50.718;7.114;2022-08-05T01:42:33;22.50;99.90
41080;DHT22;26826;50.718;7.114;2022-08-05T01:52:36;22.30;99.90
41080;DHT22;26826;50.718;7.114;2022-08-05T02:02:44;22.10;99.90
41080;DHT22;26826;50.718;7.114;2022-08-05T02:12:53;22.20;99.90
41080;DHT22;26826;50.718;7.114;2022-08-05T02:22:58;21.90;99.90
41080;DHT22;26826;50.718;7.114;2022-08-05T02:33:01;21.70;99.90
41080;DHT22;26826;50.718;7.114;2022-08-05T02:43:03;21.10;99.90
41080;DHT22;26826;50.718;7.114;2022-08-05T02:53:05;21.10;99.90
41080;DHT22;26826;50.718;7.114;2022-08-05T03:03:06;21.00;99.90
41080;DHT22;26826;50.718;7.114;2022-08-05T03:13:15;20.90;99.90
41080;DHT22;26826;50.718;7.114;2022-08-05T03:23:15;20.00;99.90
41080;DHT22;26826;50.718;7.114;2022-08-05T03:33:16;19.70;99.90
41080;DHT22;26826;50.718;7.114;2022-08-05T03:43:17;19.60;99.90
41080;DHT22;26826;50.718;7.114;2022-08-05T03:53:45;19.60;99.90
41080;DHT22;26826;50.718;7.114;2022-08-05T04:03:44;19.60;99.90
41080;DHT22;26826;50.718;7.114;2022-08-05T04:13:47;19.50;99.90
41080;DHT22;26826;50.718;7.114;2022-08-05T04:23:49;19.30;99.90
41080;DHT22;26826;50.718;7.114;2022-08-05T04:33:49;19.20;99.90
41080;DHT22;26826;50.718;7.114;2022-08-05T04:43:50;19.20;99.90
41080;DHT22;26826;50.718;7.114;2022-08-05T04:53:50;19.30;99.90
41080;DHT22;26826;50.718;7.114;2022-08-05T05:03:51;19.30;99.90
41080;DHT22;26826;50.718;7.114;2022-08-05T05:13:51;19.40;99.90
41080;DHT22;26826;50.718;7.114;2022-08-05T05:23:52;19.30;99.90
41080;DHT22;26826;50.718;7.114;2022-08-05T05:33:52;19.40;99.90
41080;DHT22;26826;50.718;7.114;2022-08-05T05:43:53;19.40;99.90
41080;DHT22;26826;50.718;7.114;2022-08-05T05:53:54;19.40;99.90
41080;DHT22;26826;50.718;7.114;2022-08-05T06:03:56;19.50;99.90
41080;DHT22;26826;50.718;7.114;2022-08-05T06:13:56;19.80;99.90
41080;DHT22;26826;50.718;7.114;2022-08-05T06:23:57;20.10;99.90
41080;DHT22;26826;50.718;7.114;2022-08-05T06:33:59;20.40;99.90
41080;DHT22;26826;50.718;7.114;2022-08-05T06:43:59;20.90;99.90
41080;DHT22;26826;50.718;7.114;2022-08-05T06:54:01;20.90;99.90
41080;DHT22;26826;50.718;7.114;2022-08-05T07:04:02;21.00;99.90
41080;DHT22;26826;50.718;7.114;2022-08-05T07:14:03;21.10;99.90
41080;DHT22;26826;50.718;7.114;2022-08-05T07:24:22;20.80;99.90
41080;DHT22;26826;50.718;7.114;2022-08-05T07:34:23;21.00;99.90
41080;DHT22;26826;50.718;7.114;2022-08-05T07:44:23;21.20;99.90
41080;DHT22;26826;50.718;7.114;2022-08-05T07:54:24;21.00;99.90
41080;DHT22;26826;50.718;7.114;2022-08-05T08:04:28;21.10;99.90
41080;DHT22;26826;50.718;7.114;2022-08-05T08:14:28;21.80;99.90
41080;DHT22;26826;50.718;7.114;2022-08-05T08:24:29;21.70;99.90
41080;DHT22;26826;50.718;7.114;2022-08-05T08:34:30;21.60;99.90
41080;DHT22;26826;50.718;7.114;2022-08-05T08:44:32;21.70;99.90
41080;DHT22;26826;50.718;7.114;2022-08-05T08:54:34;21.50;99.90
41080;DHT22;26826;50.718;7.114;2022-08-05T09:04:36;21.80;99.90
41080;DHT22;26826;50.718;7.114;2022-08-05T09:14:39;21.90;99.90
41080;DHT22;26826;50.718;7.114;2022-08-05T09:24:40;21.70;99.90
41080;DHT22;26826;50.718;7.114;2022-08-05T09:34:52;22.00;99.90
41080;DHT22;26826;50.718;7.114;2022-08-05T09:44:55;21.70;99.90
41080;DHT22;26826;50.718;7.114;2022-08-05T10:05:07;21.90;99.90
41080;DHT22;26826;50.718;7.114;2022-08-05T10:25:18;21.40;99.90
41080;DHT22;26826;50.718;7.114;2022-08-05T10:35:18;20.80;99.90
41080;DHT22;26826;50.718;7.114;2022-08-05T10:45:27;20.40;99.90
41080;DHT22;26826;50.718;7.114;2022-08-05T10:55:28;19.90;99.90
41080;DHT22;26826;50.718;7.114;2022-08-05T11:05:31;19.80;99.90
41080;DHT22;26826;50.718;7.114;2022-08-05T11:15:37;19.70;99.90
41080;DHT22;26826;50.718;7.114;2022-08-05T11:25:42;19.80;99.90
41080;DHT22;26826;50.718;7.114;2022-08-05T11:36:06;19.90;99.90
41080;DHT22;26826;50.718;7.114;2022-08-05T11:46:07;20.10;99.90
41080;DHT22;26826;50.718;7.114;2022-08-05T11:56:08;20.30;99.90
41080;DHT22;26826;50.718;7.114;2022-08-05T12:06:09;20.80;99.90
41080;DHT22;26826;50.718;7.114;2022-08-05T12:16:16;21.90;99.90
41080;DHT22;26826;50.718;7.114;2022-08-05T12:26:17;23.60;99.90
41080;DHT22;26826;50.718;7.114;2022-08-05T12:36:18;23.40;99.90
41080;DHT22;26826;50.718;7.114;2022-08-05T12:46:26;23.40;99.90
41080;DHT22;26826;50.718;7.114;2022-08-05T12:56:29;23.70;99.90
41080;DHT22;26826;50.718;7.114;2022-08-05T13:06:29;26.00;99.90
41080;DHT22;26826;50.718;7.114;2022-08-05T13:16:30;26.30;99.90
41080;DHT22;26826;50.718;7.114;2022-08-05T13:26:31;26.90;99.50
41080;DHT22;26826;50.718;7.114;2022-08-05T13:36:32;27.80;98.10
41080;DHT22;26826;50.718;7.114;2022-08-05T13:46:33;27.90;96.70
41080;DHT22;26826;50.718;7.114;2022-08-05T13:56:34;27.20;96.80
41080;DHT22;26826;50.718;7.114;2022-08-05T14:06:34;26.90;96.90
41080;DHT22;26826;50.718;7.114;2022-08-05T14:16:35;26.60;96.90
41080;DHT22;26826;50.718;7.114;2022-08-05T14:26:36;27.40;96.80
41080;DHT22;26826;50.718;7.114;2022-08-05T14:36:37;27.50;96.00
41080;DHT22;26826;50.718;7.114;2022-08-05T14:46:38;28.50;95.60
41080;DHT22;26826;50.718;7.114;2022-08-05T14:56:38;27.90;95.30
41080;DHT22;26826;50.718;7.114;2022-08-05T15:06:39;27.00;96.30
41080;DHT22;26826;50.718;7.114;2022-08-05T15:16:39;26.50;96.00
41080;DHT22;26826;50.718;7.114;2022-08-05T15:26:40;26.50;95.90
41080;DHT22;26826;50.718;7.114;2022-08-05T15:36:40;25.10;97.90
41080;DHT22;26826;50.718;7.114;2022-08-05T15:46:41;24.90;98.50
41080;DHT22;26826;50.718;7.114;2022-08-05T15:56:41;25.40;95.30
41080;DHT22;26826;50.718;7.114;2022-08-05T16:06:42;24.90;93.90
41080;DHT22;26826;50.718;7.114;2022-08-05T16:16:43;24.40;95.00
41080;DHT22;26826;50.718;7.114;2022-08-05T16:26:55;24.10;95.50
41080;DHT22;26826;50.718;7.114;2022-08-05T16:36:56;23.90;95.50
41080;DHT22;26826;50.718;7.114;2022-08-05T16:46:56;24.00;95.20
41080;DHT22;26826;50.718;7.114;2022-08-05T16:56:57;24.10;95.50
41080;DHT22;26826;50.718;7.114;2022-08-05T17:06:58;24.00;96.10
41080;DHT22;26826;50.718;7.114;2022-08-05T17:16:59;23.70;96.50
41080;DHT22;26826;50.718;7.114;2022-08-05T17:27:00;23.60;96.80
41080;DHT22;26826;50.718;7.114;2022-08-05T17:37:00;23.40;97.40
41080;DHT22;26826;50.718;7.114;2022-08-05T17:47:01;23.20;97.10
41080;DHT22;26826;50.718;7.114;2022-08-05T17:57:03;23.10;97.40
41080;DHT22;26826;50.718;7.114;2022-08-05T18:07:04;22.90;96.90
41080;DHT22;26826;50.718;7.114;2022-08-05T18:17:04;22.80;97.40
41080;DHT22;26826;50.718;7.114;2022-08-05T18:27:07;22.80;97.80
41080;DHT22;26826;50.718;7.114;2022-08-05T18:37:07;22.70;97.30
41080;DHT22;26826;50.718;7.114;2022-08-05T18:47:08;22.50;93.90
41080;DHT22;26826;50.718;7.114;2022-08-05T18:57:08;22.30;93.50
41080;DHT22;26826;50.718;7.114;2022-08-05T19:07:11;21.90;92.50
41080;DHT22;26826;50.718;7.114;2022-08-05T19:17:12;21.90;93.10
41080;DHT22;26826;50.718;7.114;2022-08-05T19:27:13;21.80;93.40
41080;DHT22;26826;50.718;7.114;2022-08-05T19:37:14;21.40;93.80
41080;DHT22;26826;50.718;7.114;2022-08-05T19:47:14;21.20;94.10
41080;DHT22;26826;50.718;7.114;2022-08-05T19:57:15;20.90;94.40
41080;DHT22;26826;50.718;7.114;2022-08-05T20:07:17;20.80;94.70
41080;DHT22;26826;50.718;7.114;2022-08-05T20:17:17;20.50;95.90
41080;DHT22;26826;50.718;7.114;2022-08-05T20:27:18;20.30;95.70
41080;DHT22;26826;50.718;7.114;2022-08-05T20:37:18;20.20;95.70
41080;DHT22;26826;50.718;7.114;2022-08-05T20:47:19;20.00;96.70
41080;DHT22;26826;50.718;7.114;2022-08-05T20:57:19;20.00;95.80
41080;DHT22;26826;50.718;7.114;2022-08-05T21:07:20;19.80;96.80
41080;DHT22;26826;50.718;7.114;2022-08-05T21:17:20;19.60;97.00
41080;DHT22;26826;50.718;7.114;2022-08-05T21:27:21;19.50;97.00
41080;DHT22;26826;50.718;7.114;2022-08-05T21:37:22;19.30;97.30
41080;DHT22;26826;50.718;7.114;2022-08-05T21:47:22;19.10;98.10
41080;DHT22;26826;50.718;7.114;2022-08-05T21:57:25;18.80;99.30
41080;DHT22;26826;50.718;7.114;2022-08-05T22:07:25;18.50;99.90
41080;DHT22;26826;50.718;7.114;2022-08-05T22:17:26;18.30;99.90
41080;DHT22;26826;50.718;7.114;2022-08-05T22:27:26;18.10;99.90
41080;DHT22;26826;50.718;7.114;2022-08-05T22:37:42;18.10;99.90
41080;DHT22;26826;50.718;7.114;2022-08-05T22:47:43;18.10;99.90
41080;DHT22;26826;50.718;7.114;2022-08-05T22:58:04;18.10;99.90
41080;DHT22;26826;50.718;7.114;2022-08-05T23:08:05;17.80;99.90
41080;DHT22;26826;50.718;7.114;2022-08-05T23:18:06;17.80;99.90
41080;DHT22;26826;50.718;7.114;2022-08-05T23:28:07;17.70;99.90
41080;DHT22;26826;50.718;7.114;2022-08-05T23:38:07;17.50;99.90
41080;DHT22;26826;50.718;7.114;2022-08-05T23:48:08;17.30;99.90
41080;DHT22;26826;50.718;7.114;2022-08-05T23:58:08;17.20;99.90
